Terminal Aerodrome Forecast
Issued by NWS

Current Version | Previous Version | Graphics & Text | Print | Product List | Glossary On
Versions: 1 2 3 4 5 6 7 8 9 10 11 12 13 14 15 16 17 18
000
FTUS41 KPBZ 231700
TAFHLG
TAF
KHLG 231730Z 2318/2418 14006KT P6SM SCT020 BKN040
      TEMPO 2318/2320 BKN020 OVC040
     FM240400 15008KT 5SM -RA BR OVC015
      TEMPO 2408/2412 2SM -RA BR OVC008
     FM241400 14010KT 6SM BR OVC020=

USA.gov is the U.S. government's official web portal to all federal, state and local government web resources and services.